sensor_id;sensor_type;location;lat;lon;timestamp;temperature;humidity
35635;DHT22;21757;43.610;1.440;2024-02-23T00:02:23;7.90;99.90
35635;DHT22;21757;43.610;1.440;2024-02-23T00:04:49;7.90;99.90
35635;DHT22;21757;43.610;1.440;2024-02-23T00:07:15;7.90;99.90
35635;DHT22;21757;43.610;1.440;2024-02-23T00:09:42;7.80;99.90
35635;DHT22;21757;43.610;1.440;2024-02-23T00:12:07;7.80;99.90
35635;DHT22;21757;43.610;1.440;2024-02-23T00:14:34;7.80;99.90
35635;DHT22;21757;43.610;1.440;2024-02-23T00:17:02;7.80;99.90
35635;DHT22;21757;43.610;1.440;2024-02-23T00:19:29;7.80;99.90
35635;DHT22;21757;43.610;1.440;2024-02-23T00:21:55;7.70;99.90
35635;DHT22;21757;43.610;1.440;2024-02-23T00:24:20;7.70;99.90
35635;DHT22;21757;43.610;1.440;2024-02-23T00:26:47;7.70;99.90
35635;DHT22;21757;43.610;1.440;2024-02-23T00:29:13;7.60;99.90
35635;DHT22;21757;43.610;1.440;2024-02-23T00:31:39;7.60;99.90
35635;DHT22;21757;43.610;1.440;2024-02-23T00:34:08;7.60;99.90
35635;DHT22;21757;43.610;1.440;2024-02-23T00:36:42;7.60;99.90
35635;DHT22;21757;43.610;1.440;2024-02-23T00:39:09;7.50;99.90
35635;DHT22;21757;43.610;1.440;2024-02-23T00:41:35;7.50;99.90
35635;DHT22;21757;43.610;1.440;2024-02-23T00:44:02;7.50;99.90
35635;DHT22;21757;43.610;1.440;2024-02-23T00:46:28;7.50;99.90
35635;DHT22;21757;43.610;1.440;2024-02-23T00:48:53;7.50;99.90
35635;DHT22;21757;43.610;1.440;2024-02-23T00:51:19;7.50;99.90
35635;DHT22;21757;43.610;1.440;2024-02-23T00:53:45;7.50;99.90
35635;DHT22;21757;43.610;1.440;2024-02-23T00:56:11;7.40;99.90
35635;DHT22;21757;43.610;1.440;2024-02-23T00:58:36;7.40;99.90
35635;DHT22;21757;43.610;1.440;2024-02-23T01:01:02;7.40;99.90
35635;DHT22;21757;43.610;1.440;2024-02-23T01:03:28;7.30;99.90
35635;DHT22;21757;43.610;1.440;2024-02-23T01:05:53;7.30;99.90
35635;DHT22;21757;43.610;1.440;2024-02-23T01:08:19;7.30;99.90
35635;DHT22;21757;43.610;1.440;2024-02-23T01:10:45;7.30;99.90
35635;DHT22;21757;43.610;1.440;2024-02-23T01:13:11;7.20;99.90
35635;DHT22;21757;43.610;1.440;2024-02-23T01:15:36;7.30;99.90
35635;DHT22;21757;43.610;1.440;2024-02-23T01:18:02;7.30;99.90
35635;DHT22;21757;43.610;1.440;2024-02-23T01:20:28;7.20;99.90
35635;DHT22;21757;43.610;1.440;2024-02-23T01:22:54;7.20;99.90
35635;DHT22;21757;43.610;1.440;2024-02-23T01:25:19;7.30;99.90
35635;DHT22;21757;43.610;1.440;2024-02-23T01:27:45;7.40;99.90
35635;DHT22;21757;43.610;1.440;2024-02-23T01:30:11;7.40;99.90
35635;DHT22;21757;43.610;1.440;2024-02-23T01:32:37;7.40;99.90
35635;DHT22;21757;43.610;1.440;2024-02-23T01:35:05;7.40;99.90
35635;DHT22;21757;43.610;1.440;2024-02-23T01:37:31;7.50;99.90
35635;DHT22;21757;43.610;1.440;2024-02-23T01:39:57;7.60;99.90
35635;DHT22;21757;43.610;1.440;2024-02-23T01:42:23;7.70;99.90
35635;DHT22;21757;43.610;1.440;2024-02-23T01:44:49;7.60;99.90
35635;DHT22;21757;43.610;1.440;2024-02-23T01:47:15;7.60;99.90
35635;DHT22;21757;43.610;1.440;2024-02-23T01:49:41;7.50;99.90
35635;DHT22;21757;43.610;1.440;2024-02-23T01:52:07;7.50;99.90
35635;DHT22;21757;43.610;1.440;2024-02-23T01:54:33;7.50;99.90
35635;DHT22;21757;43.610;1.440;2024-02-23T01:57:00;7.50;99.90
35635;DHT22;21757;43.610;1.440;2024-02-23T01:59:27;7.50;99.90
35635;DHT22;21757;43.610;1.440;2024-02-23T02:01:53;7.40;99.90
35635;DHT22;21757;43.610;1.440;2024-02-23T02:04:19;7.30;99.90
35635;DHT22;21757;43.610;1.440;2024-02-23T02:06:46;7.30;99.90
35635;DHT22;21757;43.610;1.440;2024-02-23T02:09:12;7.30;99.90
35635;DHT22;21757;43.610;1.440;2024-02-23T02:11:50;7.30;99.90
35635;DHT22;21757;43.610;1.440;2024-02-23T02:14:16;7.20;99.90
35635;DHT22;21757;43.610;1.440;2024-02-23T02:16:42;7.20;99.90
35635;DHT22;21757;43.610;1.440;2024-02-23T02:19:10;7.20;99.90
35635;DHT22;21757;43.610;1.440;2024-02-23T02:21:36;7.20;99.90
35635;DHT22;21757;43.610;1.440;2024-02-23T02:24:02;7.20;99.90
35635;DHT22;21757;43.610;1.440;2024-02-23T02:26:28;7.20;99.90
35635;DHT22;21757;43.610;1.440;2024-02-23T02:28:54;7.10;99.90
35635;DHT22;21757;43.610;1.440;2024-02-23T02:31:19;7.10;99.90
35635;DHT22;21757;43.610;1.440;2024-02-23T02:33:45;7.10;99.90
35635;DHT22;21757;43.610;1.440;2024-02-23T02:36:11;7.00;99.90
35635;DHT22;21757;43.610;1.440;2024-02-23T02:38:37;7.10;99.90
35635;DHT22;21757;43.610;1.440;2024-02-23T02:41:03;7.00;99.90
35635;DHT22;21757;43.610;1.440;2024-02-23T02:43:30;7.00;99.90
35635;DHT22;21757;43.610;1.440;2024-02-23T02:45:56;7.10;99.90
35635;DHT22;21757;43.610;1.440;2024-02-23T02:48:22;7.30;99.90
35635;DHT22;21757;43.610;1.440;2024-02-23T02:50:48;7.40;99.90
35635;DHT22;21757;43.610;1.440;2024-02-23T02:53:15;7.30;99.90
35635;DHT22;21757;43.610;1.440;2024-02-23T02:55:42;7.20;99.90
35635;DHT22;21757;43.610;1.440;2024-02-23T02:58:09;7.10;99.90
35635;DHT22;21757;43.610;1.440;2024-02-23T03:00:34;7.00;99.90
35635;DHT22;21757;43.610;1.440;2024-02-23T03:03:00;7.00;99.90
35635;DHT22;21757;43.610;1.440;2024-02-23T03:05:26;7.10;99.90
35635;DHT22;21757;43.610;1.440;2024-02-23T03:07:52;7.10;99.90
35635;DHT22;21757;43.610;1.440;2024-02-23T03:10:17;7.10;99.90
35635;DHT22;21757;43.610;1.440;2024-02-23T03:12:43;7.10;99.90
35635;DHT22;21757;43.610;1.440;2024-02-23T03:15:09;7.10;99.90
35635;DHT22;21757;43.610;1.440;2024-02-23T03:17:38;7.10;99.90
35635;DHT22;21757;43.610;1.440;2024-02-23T03:20:04;7.20;99.90
35635;DHT22;21757;43.610;1.440;2024-02-23T03:22:37;7.30;99.90
35635;DHT22;21757;43.610;1.440;2024-02-23T03:25:04;7.30;99.90
35635;DHT22;21757;43.610;1.440;2024-02-23T03:27:34;7.20;99.90
35635;DHT22;21757;43.610;1.440;2024-02-23T03:30:03;7.10;99.90
35635;DHT22;21757;43.610;1.440;2024-02-23T03:32:28;7.00;99.90
35635;DHT22;21757;43.610;1.440;2024-02-23T03:34:56;7.00;99.90
35635;DHT22;21757;43.610;1.440;2024-02-23T03:37:22;6.90;99.90
35635;DHT22;21757;43.610;1.440;2024-02-23T03:39:47;6.90;99.90
35635;DHT22;21757;43.610;1.440;2024-02-23T03:42:14;6.80;99.90
35635;DHT22;21757;43.610;1.440;2024-02-23T03:44:40;6.80;99.90
35635;DHT22;21757;43.610;1.440;2024-02-23T03:47:08;6.80;99.90
35635;DHT22;21757;43.610;1.440;2024-02-23T03:49:33;6.80;99.90
35635;DHT22;21757;43.610;1.440;2024-02-23T03:51:59;6.80;99.90
35635;DHT22;21757;43.610;1.440;2024-02-23T03:54:25;6.80;99.90
35635;DHT22;21757;43.610;1.440;2024-02-23T03:56:50;6.80;99.90
35635;DHT22;21757;43.610;1.440;2024-02-23T03:59:16;6.70;99.90
35635;DHT22;21757;43.610;1.440;2024-02-23T04:01:41;6.70;99.90
35635;DHT22;21757;43.610;1.440;2024-02-23T04:04:07;6.80;99.90
35635;DHT22;21757;43.610;1.440;2024-02-23T04:06:36;6.80;99.90
35635;DHT22;21757;43.610;1.440;2024-02-23T04:09:02;6.80;99.90
35635;DHT22;21757;43.610;1.440;2024-02-23T04:11:30;6.70;99.90
35635;DHT22;21757;43.610;1.440;2024-02-23T04:13:56;6.70;99.90
35635;DHT22;21757;43.610;1.440;2024-02-23T04:16:23;6.70;99.90
35635;DHT22;21757;43.610;1.440;2024-02-23T04:18:50;6.70;99.90
35635;DHT22;21757;43.610;1.440;2024-02-23T04:21:16;6.70;99.90
35635;DHT22;21757;43.610;1.440;2024-02-23T04:23:43;6.70;99.90
35635;DHT22;21757;43.610;1.440;2024-02-23T04:26:08;6.70;99.90
35635;DHT22;21757;43.610;1.440;2024-02-23T04:28:37;6.70;99.90
35635;DHT22;21757;43.610;1.440;2024-02-23T04:31:03;6.70;99.90
35635;DHT22;21757;43.610;1.440;2024-02-23T04:33:28;6.70;99.90
35635;DHT22;21757;43.610;1.440;2024-02-23T04:35:54;6.70;99.90
35635;DHT22;21757;43.610;1.440;2024-02-23T04:38:20;6.70;99.90
35635;DHT22;21757;43.610;1.440;2024-02-23T04:40:45;6.70;99.90
35635;DHT22;21757;43.610;1.440;2024-02-23T04:43:11;6.70;99.90
35635;DHT22;21757;43.610;1.440;2024-02-23T04:45:36;6.60;99.90
35635;DHT22;21757;43.610;1.440;2024-02-23T04:48:02;6.60;99.90
35635;DHT22;21757;43.610;1.440;2024-02-23T04:50:29;6.60;99.90
35635;DHT22;21757;43.610;1.440;2024-02-23T04:52:55;6.70;99.90
35635;DHT22;21757;43.610;1.440;2024-02-23T04:55:20;6.60;99.90
35635;DHT22;21757;43.610;1.440;2024-02-23T04:57:46;6.60;99.90
35635;DHT22;21757;43.610;1.440;2024-02-23T05:00:12;6.50;99.90
35635;DHT22;21757;43.610;1.440;2024-02-23T05:02:38;6.50;99.90
35635;DHT22;21757;43.610;1.440;2024-02-23T05:05:04;6.50;99.90
35635;DHT22;21757;43.610;1.440;2024-02-23T05:07:33;6.40;99.90
35635;DHT22;21757;43.610;1.440;2024-02-23T05:09:59;6.40;99.90
35635;DHT22;21757;43.610;1.440;2024-02-23T05:12:25;6.50;99.90
35635;DHT22;21757;43.610;1.440;2024-02-23T05:14:51;6.50;99.90
35635;DHT22;21757;43.610;1.440;2024-02-23T05:17:17;6.40;99.90
35635;DHT22;21757;43.610;1.440;2024-02-23T05:19:43;6.30;99.90
35635;DHT22;21757;43.610;1.440;2024-02-23T05:22:09;6.30;99.90
35635;DHT22;21757;43.610;1.440;2024-02-23T05:24:34;6.30;99.90
35635;DHT22;21757;43.610;1.440;2024-02-23T05:27:00;6.40;99.90
35635;DHT22;21757;43.610;1.440;2024-02-23T05:29:28;6.40;99.90
35635;DHT22;21757;43.610;1.440;2024-02-23T05:31:54;6.30;99.90
35635;DHT22;21757;43.610;1.440;2024-02-23T05:34:20;6.30;99.90
35635;DHT22;21757;43.610;1.440;2024-02-23T05:36:46;6.30;99.90
35635;DHT22;21757;43.610;1.440;2024-02-23T05:39:13;6.40;99.90
35635;DHT22;21757;43.610;1.440;2024-02-23T05:41:41;6.50;99.90
35635;DHT22;21757;43.610;1.440;2024-02-23T05:44:06;6.60;99.90
35635;DHT22;21757;43.610;1.440;2024-02-23T05:46:33;6.70;99.90
35635;DHT22;21757;43.610;1.440;2024-02-23T05:48:59;6.60;99.90
35635;DHT22;21757;43.610;1.440;2024-02-23T05:51:25;6.50;99.90
35635;DHT22;21757;43.610;1.440;2024-02-23T05:53:51;6.50;99.90
35635;DHT22;21757;43.610;1.440;2024-02-23T05:56:16;6.50;99.90
35635;DHT22;21757;43.610;1.440;2024-02-23T05:58:42;6.50;99.90
35635;DHT22;21757;43.610;1.440;2024-02-23T06:01:08;6.60;99.90
35635;DHT22;21757;43.610;1.440;2024-02-23T06:03:33;6.60;99.90
35635;DHT22;21757;43.610;1.440;2024-02-23T06:05:59;6.60;99.90
35635;DHT22;21757;43.610;1.440;2024-02-23T06:08:25;6.70;99.90
35635;DHT22;21757;43.610;1.440;2024-02-23T06:10:50;6.90;99.90
35635;DHT22;21757;43.610;1.440;2024-02-23T06:13:16;7.00;99.90
35635;DHT22;21757;43.610;1.440;2024-02-23T06:15:42;7.10;99.90
35635;DHT22;21757;43.610;1.440;2024-02-23T06:18:07;7.10;99.90
35635;DHT22;21757;43.610;1.440;2024-02-23T06:20:33;7.00;99.90
35635;DHT22;21757;43.610;1.440;2024-02-23T06:22:58;7.00;99.90
35635;DHT22;21757;43.610;1.440;2024-02-23T06:25:25;7.10;99.90
35635;DHT22;21757;43.610;1.440;2024-02-23T06:27:50;7.20;99.90
35635;DHT22;21757;43.610;1.440;2024-02-23T06:30:16;7.20;99.90
35635;DHT22;21757;43.610;1.440;2024-02-23T06:32:42;7.20;99.90
35635;DHT22;21757;43.610;1.440;2024-02-23T06:35:08;7.30;99.90
35635;DHT22;21757;43.610;1.440;2024-02-23T06:37:34;7.30;99.90
35635;DHT22;21757;43.610;1.440;2024-02-23T06:39:59;7.40;99.90
35635;DHT22;21757;43.610;1.440;2024-02-23T06:42:25;7.40;99.90
35635;DHT22;21757;43.610;1.440;2024-02-23T06:44:51;7.40;99.90
35635;DHT22;21757;43.610;1.440;2024-02-23T06:47:17;7.40;99.90
35635;DHT22;21757;43.610;1.440;2024-02-23T06:49:43;7.40;99.90
35635;DHT22;21757;43.610;1.440;2024-02-23T06:52:09;7.50;99.90
35635;DHT22;21757;43.610;1.440;2024-02-23T06:54:35;7.50;99.90
35635;DHT22;21757;43.610;1.440;2024-02-23T06:57:01;7.60;99.90
35635;DHT22;21757;43.610;1.440;2024-02-23T06:59:27;7.70;99.90
35635;DHT22;21757;43.610;1.440;2024-02-23T07:01:52;7.70;99.90
35635;DHT22;21757;43.610;1.440;2024-02-23T07:04:19;7.80;99.90
35635;DHT22;21757;43.610;1.440;2024-02-23T07:06:44;7.70;99.90
35635;DHT22;21757;43.610;1.440;2024-02-23T07:09:10;7.80;99.90
35635;DHT22;21757;43.610;1.440;2024-02-23T07:11:37;7.80;99.90
35635;DHT22;21757;43.610;1.440;2024-02-23T07:14:03;7.70;99.90
35635;DHT22;21757;43.610;1.440;2024-02-23T07:16:29;7.60;99.90
35635;DHT22;21757;43.610;1.440;2024-02-23T07:18:55;7.50;99.90
35635;DHT22;21757;43.610;1.440;2024-02-23T07:21:22;7.40;99.90
35635;DHT22;21757;43.610;1.440;2024-02-23T07:23:48;7.40;99.90
35635;DHT22;21757;43.610;1.440;2024-02-23T07:26:14;7.40;99.90
35635;DHT22;21757;43.610;1.440;2024-02-23T07:28:39;7.50;99.90
35635;DHT22;21757;43.610;1.440;2024-02-23T07:31:05;7.40;99.90
35635;DHT22;21757;43.610;1.440;2024-02-23T07:33:30;7.50;99.90
35635;DHT22;21757;43.610;1.440;2024-02-23T07:35:57;7.60;99.90
35635;DHT22;21757;43.610;1.440;2024-02-23T07:38:24;7.60;99.90
35635;DHT22;21757;43.610;1.440;2024-02-23T07:40:49;7.50;99.90
35635;DHT22;21757;43.610;1.440;2024-02-23T07:43:15;7.40;99.90
35635;DHT22;21757;43.610;1.440;2024-02-23T07:45:41;7.30;99.90
35635;DHT22;21757;43.610;1.440;2024-02-23T07:48:08;7.50;99.90
35635;DHT22;21757;43.610;1.440;2024-02-23T07:50:34;7.60;99.90
35635;DHT22;21757;43.610;1.440;2024-02-23T07:52:59;7.70;99.90
35635;DHT22;21757;43.610;1.440;2024-02-23T07:55:25;7.60;99.90
35635;DHT22;21757;43.610;1.440;2024-02-23T07:57:51;7.80;99.90
35635;DHT22;21757;43.610;1.440;2024-02-23T08:00:16;7.70;99.90
35635;DHT22;21757;43.610;1.440;2024-02-23T08:02:42;7.70;99.90
35635;DHT22;21757;43.610;1.440;2024-02-23T08:05:08;7.80;99.90
35635;DHT22;21757;43.610;1.440;2024-02-23T08:07:34;7.90;99.90
35635;DHT22;21757;43.610;1.440;2024-02-23T08:10:00;8.00;99.90
35635;DHT22;21757;43.610;1.440;2024-02-23T08:12:26;8.00;99.90
35635;DHT22;21757;43.610;1.440;2024-02-23T08:14:52;8.10;99.90
35635;DHT22;21757;43.610;1.440;2024-02-23T08:17:18;8.30;99.90
35635;DHT22;21757;43.610;1.440;2024-02-23T08:19:44;8.50;99.90
35635;DHT22;21757;43.610;1.440;2024-02-23T08:22:10;8.50;99.90
35635;DHT22;21757;43.610;1.440;2024-02-23T08:24:36;8.60;99.90
35635;DHT22;21757;43.610;1.440;2024-02-23T08:27:01;8.70;99.90
35635;DHT22;21757;43.610;1.440;2024-02-23T08:29:28;8.70;99.90
35635;DHT22;21757;43.610;1.440;2024-02-23T08:31:54;8.40;99.90
35635;DHT22;21757;43.610;1.440;2024-02-23T08:34:19;8.40;99.90
35635;DHT22;21757;43.610;1.440;2024-02-23T08:36:45;8.60;99.90
35635;DHT22;21757;43.610;1.440;2024-02-23T08:39:11;8.60;99.90
35635;DHT22;21757;43.610;1.440;2024-02-23T08:41:36;8.50;99.90
35635;DHT22;21757;43.610;1.440;2024-02-23T08:44:02;8.50;99.90
35635;DHT22;21757;43.610;1.440;2024-02-23T08:46:28;8.50;99.90
35635;DHT22;21757;43.610;1.440;2024-02-23T08:48:53;8.60;99.90
35635;DHT22;21757;43.610;1.440;2024-02-23T08:51:20;8.60;99.90
35635;DHT22;21757;43.610;1.440;2024-02-23T08:53:46;8.50;99.90
35635;DHT22;21757;43.610;1.440;2024-02-23T08:56:12;8.30;99.90
35635;DHT22;21757;43.610;1.440;2024-02-23T08:58:38;8.30;99.90
35635;DHT22;21757;43.610;1.440;2024-02-23T09:01:04;8.60;99.90
35635;DHT22;21757;43.610;1.440;2024-02-23T09:03:30;8.60;99.90
35635;DHT22;21757;43.610;1.440;2024-02-23T09:05:57;8.50;99.90
35635;DHT22;21757;43.610;1.440;2024-02-23T09:08:22;8.50;99.90
35635;DHT22;21757;43.610;1.440;2024-02-23T09:10:48;8.50;99.90
35635;DHT22;21757;43.610;1.440;2024-02-23T09:13:14;8.60;99.90
35635;DHT22;21757;43.610;1.440;2024-02-23T09:15:40;8.70;99.90
35635;DHT22;21757;43.610;1.440;2024-02-23T09:18:07;8.60;99.90
35635;DHT22;21757;43.610;1.440;2024-02-23T09:20:33;8.70;99.90
35635;DHT22;21757;43.610;1.440;2024-02-23T09:22:59;8.90;99.90
35635;DHT22;21757;43.610;1.440;2024-02-23T09:25:24;9.30;99.90
35635;DHT22;21757;43.610;1.440;2024-02-23T09:27:50;9.20;99.90
35635;DHT22;21757;43.610;1.440;2024-02-23T09:30:16;9.30;99.90
35635;DHT22;21757;43.610;1.440;2024-02-23T09:32:41;9.30;99.90
35635;DHT22;21757;43.610;1.440;2024-02-23T09:35:08;9.40;99.90
35635;DHT22;21757;43.610;1.440;2024-02-23T09:37:33;9.30;99.90
35635;DHT22;21757;43.610;1.440;2024-02-23T09:39:59;9.30;99.90
35635;DHT22;21757;43.610;1.440;2024-02-23T09:42:25;9.10;99.90
35635;DHT22;21757;43.610;1.440;2024-02-23T09:44:58;8.90;99.90
35635;DHT22;21757;43.610;1.440;2024-02-23T09:47:27;9.00;99.90
35635;DHT22;21757;43.610;1.440;2024-02-23T09:49:54;9.00;99.90
35635;DHT22;21757;43.610;1.440;2024-02-23T09:52:21;9.10;99.90
35635;DHT22;21757;43.610;1.440;2024-02-23T09:54:48;9.20;99.90
35635;DHT22;21757;43.610;1.440;2024-02-23T09:57:16;9.00;99.90
35635;DHT22;21757;43.610;1.440;2024-02-23T09:59:41;8.80;99.90
35635;DHT22;21757;43.610;1.440;2024-02-23T10:02:08;8.60;99.90
35635;DHT22;21757;43.610;1.440;2024-02-23T10:04:38;8.80;99.90
35635;DHT22;21757;43.610;1.440;2024-02-23T10:07:06;8.90;99.90
35635;DHT22;21757;43.610;1.440;2024-02-23T10:09:31;9.00;99.90
35635;DHT22;21757;43.610;1.440;2024-02-23T10:11:57;8.50;99.90
35635;DHT22;21757;43.610;1.440;2024-02-23T10:14:23;8.20;99.90
35635;DHT22;21757;43.610;1.440;2024-02-23T10:16:48;8.20;99.90
35635;DHT22;21757;43.610;1.440;2024-02-23T10:19:22;8.20;99.90
35635;DHT22;21757;43.610;1.440;2024-02-23T10:21:54;8.10;99.90
35635;DHT22;21757;43.610;1.440;2024-02-23T10:24:22;8.40;99.90
35635;DHT22;21757;43.610;1.440;2024-02-23T10:26:48;8.40;99.90
35635;DHT22;21757;43.610;1.440;2024-02-23T10:29:13;8.70;99.90
35635;DHT22;21757;43.610;1.440;2024-02-23T10:31:39;8.60;99.90
35635;DHT22;21757;43.610;1.440;2024-02-23T10:34:08;8.50;99.90
35635;DHT22;21757;43.610;1.440;2024-02-23T10:36:43;8.70;99.90
35635;DHT22;21757;43.610;1.440;2024-02-23T10:39:10;8.80;99.90
35635;DHT22;21757;43.610;1.440;2024-02-23T10:41:36;8.70;99.90
35635;DHT22;21757;43.610;1.440;2024-02-23T10:44:05;9.00;99.90
35635;DHT22;21757;43.610;1.440;2024-02-23T10:46:33;9.30;99.90
35635;DHT22;21757;43.610;1.440;2024-02-23T10:48:59;9.30;99.90
35635;DHT22;21757;43.610;1.440;2024-02-23T10:51:27;9.20;99.90
35635;DHT22;21757;43.610;1.440;2024-02-23T10:53:53;9.10;99.90
35635;DHT22;21757;43.610;1.440;2024-02-23T10:56:19;9.20;99.90
35635;DHT22;21757;43.610;1.440;2024-02-23T10:58:45;9.20;99.90
35635;DHT22;21757;43.610;1.440;2024-02-23T11:01:12;9.00;99.90
35635;DHT22;21757;43.610;1.440;2024-02-23T11:03:38;9.40;99.90
35635;DHT22;21757;43.610;1.440;2024-02-23T11:06:06;9.50;99.90
35635;DHT22;21757;43.610;1.440;2024-02-23T11:08:33;9.90;99.90
35635;DHT22;21757;43.610;1.440;2024-02-23T11:11:10;9.50;99.90
35635;DHT22;21757;43.610;1.440;2024-02-23T11:13:40;9.60;99.90
35635;DHT22;21757;43.610;1.440;2024-02-23T11:16:07;9.50;99.90
35635;DHT22;21757;43.610;1.440;2024-02-23T11:18:37;9.50;99.90
35635;DHT22;21757;43.610;1.440;2024-02-23T11:21:05;9.50;99.90
35635;DHT22;21757;43.610;1.440;2024-02-23T11:23:45;9.80;99.90
35635;DHT22;21757;43.610;1.440;2024-02-23T11:26:11;10.20;99.90
35635;DHT22;21757;43.610;1.440;2024-02-23T11:28:51;9.50;99.90
35635;DHT22;21757;43.610;1.440;2024-02-23T11:31:21;9.40;99.90
35635;DHT22;21757;43.610;1.440;2024-02-23T11:33:52;9.10;99.90
35635;DHT22;21757;43.610;1.440;2024-02-23T11:36:32;8.70;99.90
35635;DHT22;21757;43.610;1.440;2024-02-23T11:38:59;7.50;99.90
35635;DHT22;21757;43.610;1.440;2024-02-23T11:41:26;7.60;99.90
35635;DHT22;21757;43.610;1.440;2024-02-23T11:43:53;7.20;99.90
35635;DHT22;21757;43.610;1.440;2024-02-23T11:46:19;7.20;99.90
35635;DHT22;21757;43.610;1.440;2024-02-23T11:48:45;7.10;99.90
35635;DHT22;21757;43.610;1.440;2024-02-23T11:51:15;7.10;99.90
35635;DHT22;21757;43.610;1.440;2024-02-23T11:53:42;7.10;99.90
35635;DHT22;21757;43.610;1.440;2024-02-23T11:56:09;7.40;99.90
35635;DHT22;21757;43.610;1.440;2024-02-23T11:58:35;7.30;99.90
35635;DHT22;21757;43.610;1.440;2024-02-23T12:01:02;7.30;99.90
35635;DHT22;21757;43.610;1.440;2024-02-23T12:03:31;7.30;99.90
35635;DHT22;21757;43.610;1.440;2024-02-23T12:05:57;7.70;99.90
35635;DHT22;21757;43.610;1.440;2024-02-23T12:08:25;8.10;99.90
35635;DHT22;21757;43.610;1.440;2024-02-23T12:10:53;8.60;99.90
35635;DHT22;21757;43.610;1.440;2024-02-23T12:13:19;8.80;99.90
35635;DHT22;21757;43.610;1.440;2024-02-23T12:15:45;9.00;99.90
35635;DHT22;21757;43.610;1.440;2024-02-23T12:18:11;9.10;99.90
35635;DHT22;21757;43.610;1.440;2024-02-23T12:20:37;9.40;99.90
35635;DHT22;21757;43.610;1.440;2024-02-23T12:23:03;9.60;99.90
35635;DHT22;21757;43.610;1.440;2024-02-23T12:25:28;10.00;99.90
35635;DHT22;21757;43.610;1.440;2024-02-23T12:27:56;10.30;99.90
35635;DHT22;21757;43.610;1.440;2024-02-23T12:30:26;10.20;99.90
35635;DHT22;21757;43.610;1.440;2024-02-23T12:33:03;9.80;99.90
35635;DHT22;21757;43.610;1.440;2024-02-23T12:35:29;9.70;99.90
35635;DHT22;21757;43.610;1.440;2024-02-23T12:37:55;9.60;99.90
35635;DHT22;21757;43.610;1.440;2024-02-23T12:40:22;9.60;99.90
35635;DHT22;21757;43.610;1.440;2024-02-23T12:42:48;9.70;99.90
35635;DHT22;21757;43.610;1.440;2024-02-23T12:45:14;9.70;99.90
35635;DHT22;21757;43.610;1.440;2024-02-23T12:47:40;9.80;99.90
35635;DHT22;21757;43.610;1.440;2024-02-23T12:50:06;9.80;99.90
35635;DHT22;21757;43.610;1.440;2024-02-23T12:52:33;9.80;99.90
35635;DHT22;21757;43.610;1.440;2024-02-23T12:54:59;9.70;99.90
35635;DHT22;21757;43.610;1.440;2024-02-23T12:57:26;10.00;99.90
35635;DHT22;21757;43.610;1.440;2024-02-23T12:59:52;10.20;99.90
35635;DHT22;21757;43.610;1.440;2024-02-23T13:02:17;10.20;99.90
35635;DHT22;21757;43.610;1.440;2024-02-23T13:04:43;10.40;99.90
35635;DHT22;21757;43.610;1.440;2024-02-23T13:07:16;10.50;99.90
35635;DHT22;21757;43.610;1.440;2024-02-23T13:09:43;10.70;99.90
35635;DHT22;21757;43.610;1.440;2024-02-23T13:12:09;11.00;99.90
35635;DHT22;21757;43.610;1.440;2024-02-23T13:14:34;11.30;99.90
35635;DHT22;21757;43.610;1.440;2024-02-23T13:17:00;11.30;99.90
35635;DHT22;21757;43.610;1.440;2024-02-23T13:19:26;11.20;99.90
35635;DHT22;21757;43.610;1.440;2024-02-23T13:21:52;11.00;99.90
35635;DHT22;21757;43.610;1.440;2024-02-23T13:24:17;11.00;99.90
35635;DHT22;21757;43.610;1.440;2024-02-23T13:26:43;10.90;99.90
35635;DHT22;21757;43.610;1.440;2024-02-23T13:29:09;10.90;99.90
35635;DHT22;21757;43.610;1.440;2024-02-23T13:31:34;10.80;99.90
35635;DHT22;21757;43.610;1.440;2024-02-23T13:34:01;11.20;99.90
35635;DHT22;21757;43.610;1.440;2024-02-23T13:36:26;11.30;99.90
35635;DHT22;21757;43.610;1.440;2024-02-23T13:38:52;11.30;99.90
35635;DHT22;21757;43.610;1.440;2024-02-23T13:41:18;11.00;99.90
35635;DHT22;21757;43.610;1.440;2024-02-23T13:43:44;10.70;99.90
35635;DHT22;21757;43.610;1.440;2024-02-23T13:46:10;10.60;99.90
35635;DHT22;21757;43.610;1.440;2024-02-23T13:48:36;10.90;99.90
35635;DHT22;21757;43.610;1.440;2024-02-23T13:51:02;11.10;99.90
35635;DHT22;21757;43.610;1.440;2024-02-23T13:53:30;11.00;99.90
35635;DHT22;21757;43.610;1.440;2024-02-23T13:55:56;11.20;99.90
35635;DHT22;21757;43.610;1.440;2024-02-23T13:58:22;11.30;99.90
35635;DHT22;21757;43.610;1.440;2024-02-23T14:00:48;11.20;99.90
35635;DHT22;21757;43.610;1.440;2024-02-23T14:03:18;10.90;99.90
35635;DHT22;21757;43.610;1.440;2024-02-23T14:05:44;10.70;99.90
35635;DHT22;21757;43.610;1.440;2024-02-23T14:08:15;10.80;99.90
35635;DHT22;21757;43.610;1.440;2024-02-23T14:10:41;10.70;99.90
35635;DHT22;21757;43.610;1.440;2024-02-23T14:13:08;10.50;99.90
35635;DHT22;21757;43.610;1.440;2024-02-23T14:15:34;10.30;99.90
35635;DHT22;21757;43.610;1.440;2024-02-23T14:18:00;10.20;99.90
35635;DHT22;21757;43.610;1.440;2024-02-23T14:20:25;9.60;99.90
35635;DHT22;21757;43.610;1.440;2024-02-23T14:22:51;9.10;99.90
35635;DHT22;21757;43.610;1.440;2024-02-23T14:25:18;9.00;99.90
35635;DHT22;21757;43.610;1.440;2024-02-23T14:27:45;9.30;99.90
35635;DHT22;21757;43.610;1.440;2024-02-23T14:30:10;9.60;99.90
35635;DHT22;21757;43.610;1.440;2024-02-23T14:32:36;9.60;99.90
35635;DHT22;21757;43.610;1.440;2024-02-23T14:35:05;9.70;99.90
35635;DHT22;21757;43.610;1.440;2024-02-23T14:37:31;9.90;99.90
35635;DHT22;21757;43.610;1.440;2024-02-23T14:39:57;10.10;99.90
35635;DHT22;21757;43.610;1.440;2024-02-23T14:42:22;10.10;99.90
35635;DHT22;21757;43.610;1.440;2024-02-23T14:44:48;9.90;99.90
35635;DHT22;21757;43.610;1.440;2024-02-23T14:47:15;10.10;99.90
35635;DHT22;21757;43.610;1.440;2024-02-23T14:49:41;10.10;99.90
35635;DHT22;21757;43.610;1.440;2024-02-23T14:52:07;10.30;99.90
35635;DHT22;21757;43.610;1.440;2024-02-23T14:54:33;10.30;99.90
35635;DHT22;21757;43.610;1.440;2024-02-23T14:56:59;10.60;99.90
35635;DHT22;21757;43.610;1.440;2024-02-23T14:59:24;10.80;99.90
35635;DHT22;21757;43.610;1.440;2024-02-23T15:01:50;10.70;99.90
35635;DHT22;21757;43.610;1.440;2024-02-23T15:04:16;10.60;99.90
35635;DHT22;21757;43.610;1.440;2024-02-23T15:06:42;10.80;99.90
35635;DHT22;21757;43.610;1.440;2024-02-23T15:09:07;10.90;99.90
35635;DHT22;21757;43.610;1.440;2024-02-23T15:11:33;10.90;99.90
35635;DHT22;21757;43.610;1.440;2024-02-23T15:13:59;11.00;99.90
35635;DHT22;21757;43.610;1.440;2024-02-23T15:16:27;11.10;99.90
35635;DHT22;21757;43.610;1.440;2024-02-23T15:18:54;11.20;99.90
35635;DHT22;21757;43.610;1.440;2024-02-23T15:21:20;11.30;99.90
35635;DHT22;21757;43.610;1.440;2024-02-23T15:23:46;11.40;99.90
35635;DHT22;21757;43.610;1.440;2024-02-23T15:26:11;11.10;99.90
35635;DHT22;21757;43.610;1.440;2024-02-23T15:28:38;11.20;99.90
35635;DHT22;21757;43.610;1.440;2024-02-23T15:31:03;10.90;99.90
35635;DHT22;21757;43.610;1.440;2024-02-23T15:33:29;10.70;99.90
35635;DHT22;21757;43.610;1.440;2024-02-23T15:35:55;10.40;99.90
35635;DHT22;21757;43.610;1.440;2024-02-23T15:38:21;10.50;99.90